createdAt,value
2017-12-05T00:00:20.946Z,1.90
2017-12-05T00:02:48.568Z,2.80
2017-12-05T00:05:16.168Z,1.80
2017-12-05T00:07:43.764Z,1.00
2017-12-05T00:10:11.397Z,1.00
2017-12-05T00:12:38.992Z,1.60
2017-12-05T00:15:06.573Z,2.00
2017-12-05T00:17:34.197Z,1.70
2017-12-05T00:20:01.790Z,1.80
2017-12-05T00:22:29.396Z,1.80
2017-12-05T00:24:57.240Z,1.30
2017-12-05T00:27:25.609Z,1.80
2017-12-05T00:29:53.965Z,2.70
2017-12-05T00:32:22.617Z,2.13
2017-12-05T00:34:50.204Z,1.63
2017-12-05T00:37:17.802Z,1.87
2017-12-05T00:39:46.193Z,2.10
2017-12-05T00:42:14.559Z,2.07
2017-12-05T00:44:42.918Z,2.17
2017-12-05T00:47:10.548Z,1.60
2017-12-05T00:49:38.133Z,1.20
2017-12-05T00:52:05.728Z,1.70
2017-12-05T00:54:34.113Z,1.60
2017-12-05T00:57:01.705Z,1.50
2017-12-05T00:59:29.301Z,1.23
2017-12-05T01:01:56.925Z,1.07
2017-12-05T01:04:24.529Z,1.00
2017-12-05T01:06:52.119Z,1.80
2017-12-05T01:09:19.751Z,1.73
2017-12-05T01:11:47.341Z,1.30
2017-12-05T01:14:14.929Z,1.70
2017-12-05T01:16:42.561Z,1.47
2017-12-05T01:19:10.152Z,0.80
2017-12-05T01:21:37.745Z,1.43
2017-12-05T01:24:05.369Z,1.50
2017-12-05T01:26:32.963Z,1.80
2017-12-05T01:29:00.552Z,1.40
2017-12-05T01:31:28.946Z,1.60
2017-12-05T01:33:56.562Z,1.37
2017-12-05T01:36:24.153Z,1.17
2017-12-05T01:38:52.537Z,1.33
2017-12-05T01:41:20.896Z,1.70
2017-12-05T01:43:49.292Z,1.60
2017-12-05T01:46:16.897Z,2.10
2017-12-05T01:48:44.524Z,1.20
2017-12-05T01:51:12.167Z,1.13
2017-12-05T01:53:40.533Z,1.20
2017-12-05T01:56:08.169Z,0.77
2017-12-05T01:58:35.789Z,1.27
2017-12-05T02:01:03.429Z,1.10
2017-12-05T02:03:31.786Z,0.80
2017-12-05T02:05:59.420Z,1.00
2017-12-05T02:08:27.052Z,1.30
2017-12-05T02:10:54.672Z,0.83
2017-12-05T02:13:22.334Z,0.80
2017-12-05T02:15:49.941Z,1.17
2017-12-05T02:18:17.582Z,0.70
2017-12-05T02:20:45.214Z,0.80
2017-12-05T02:23:12.851Z,0.73
2017-12-05T02:25:40.444Z,0.63
2017-12-05T02:28:08.032Z,0.83
2017-12-05T02:30:35.650Z,0.87
2017-12-05T02:33:03.243Z,0.90
2017-12-05T02:35:31.624Z,0.80
2017-12-05T02:38:00.013Z,0.80
2017-12-05T02:40:39.478Z,0.80
2017-12-05T02:43:07.105Z,0.77
2017-12-05T02:45:35.481Z,0.90
2017-12-05T02:48:03.853Z,0.80
2017-12-05T02:50:32.249Z,0.90
2017-12-05T02:52:59.849Z,1.00
2017-12-05T02:55:27.465Z,0.90
2017-12-05T02:57:55.886Z,0.80
2017-12-05T03:00:23.497Z,1.00
2017-12-05T03:02:51.899Z,0.97
2017-12-05T03:05:19.515Z,1.30
2017-12-05T03:07:47.904Z,0.80
2017-12-05T03:10:16.274Z,1.10
2017-12-05T03:12:43.908Z,0.93
2017-12-05T03:15:11.510Z,0.90
2017-12-05T03:17:39.907Z,1.03
2017-12-05T03:20:07.509Z,1.03
2017-12-05T03:22:35.124Z,0.80
2017-12-05T03:25:03.522Z,1.00
2017-12-05T03:27:31.121Z,0.97
2017-12-05T03:29:58.740Z,1.33
2017-12-05T03:32:26.344Z,1.33
2017-12-05T03:34:53.981Z,1.27
2017-12-05T03:37:21.570Z,1.40
2017-12-05T03:39:49.212Z,0.80
2017-12-05T03:42:17.606Z,1.40
2017-12-05T03:44:45.229Z,1.80
2017-12-05T03:47:12.819Z,1.20
2017-12-05T03:49:40.475Z,1.70
2017-12-05T03:52:08.065Z,2.07
2017-12-05T03:54:35.684Z,1.70
2017-12-05T03:57:03.276Z,1.03
2017-12-05T03:59:30.868Z,1.50
2017-12-05T04:01:59.269Z,1.10
2017-12-05T04:04:26.857Z,1.47
2017-12-05T04:06:54.441Z,1.70
2017-12-05T04:09:22.064Z,1.50
2017-12-05T04:11:49.692Z,1.40
2017-12-05T04:14:18.049Z,1.37
2017-12-05T04:16:46.438Z,0.90
2017-12-05T04:19:14.803Z,1.27
2017-12-05T04:21:42.434Z,1.10
2017-12-05T04:24:10.027Z,1.27
2017-12-05T04:26:37.654Z,0.90
2017-12-05T04:29:05.248Z,1.70
2017-12-05T04:31:32.867Z,1.30
2017-12-05T04:34:00.459Z,0.93
2017-12-05T04:36:29.610Z,1.00
2017-12-05T04:38:57.196Z,1.00
2017-12-05T04:41:24.849Z,1.00
2017-12-05T04:43:52.455Z,0.50
2017-12-05T04:46:20.836Z,0.70
2017-12-05T04:48:49.213Z,0.60
2017-12-05T04:51:17.620Z,0.80
2017-12-05T04:53:45.217Z,0.70
2017-12-05T04:56:12.820Z,0.60
2017-12-05T04:58:41.215Z,0.60
2017-12-05T05:01:08.823Z,0.90
2017-12-05T05:03:36.430Z,0.67
2017-12-05T05:06:04.065Z,0.50
2017-12-05T05:08:31.662Z,0.60
2017-12-05T05:10:59.264Z,0.60
2017-12-05T05:13:26.876Z,0.80
2017-12-05T05:15:54.569Z,0.57
2017-12-05T05:18:22.549Z,0.60
2017-12-05T05:20:50.157Z,0.73
2017-12-05T05:23:18.582Z,0.50
2017-12-05T05:25:46.193Z,0.60
2017-12-05T05:28:14.597Z,0.60
2017-12-05T05:30:42.225Z,0.73
2017-12-05T05:33:09.818Z,1.10
2017-12-05T05:35:37.437Z,1.40
2017-12-05T05:38:05.025Z,1.73
2017-12-05T05:40:32.666Z,1.73
2017-12-05T05:43:00.258Z,1.87
2017-12-05T05:45:27.914Z,2.40
2017-12-05T05:47:55.525Z,1.40
2017-12-05T05:50:23.153Z,1.53
2017-12-05T05:52:50.736Z,1.97
2017-12-05T05:55:18.329Z,3.07
2017-12-05T05:57:45.948Z,1.63
2017-12-05T06:00:13.547Z,1.80
2017-12-05T06:02:41.921Z,1.57
2017-12-05T06:05:10.325Z,2.00
2017-12-05T06:07:38.692Z,1.77
2017-12-05T06:10:07.054Z,1.40
2017-12-05T06:12:34.668Z,1.90
2017-12-05T06:15:02.262Z,1.40
2017-12-05T06:17:29.884Z,1.17
2017-12-05T06:19:57.480Z,1.17
2017-12-05T06:22:25.101Z,1.57
2017-12-05T06:24:52.726Z,1.60
2017-12-05T06:27:20.314Z,2.10
2017-12-05T06:29:48.379Z,1.30
2017-12-05T06:32:16.044Z,1.90
2017-12-05T06:34:43.683Z,1.63
2017-12-05T06:37:12.046Z,1.77
2017-12-05T06:39:39.671Z,2.03
2017-12-05T06:42:07.274Z,1.87
2017-12-05T06:44:34.898Z,1.90
2017-12-05T06:47:02.493Z,2.00
2017-12-05T06:49:30.878Z,1.23
2017-12-05T06:51:59.252Z,3.70
2017-12-05T06:54:26.898Z,2.10
2017-12-05T06:56:54.496Z,1.40
2017-12-05T06:59:22.873Z,1.80
2017-12-05T07:01:51.290Z,2.03
2017-12-05T07:04:18.885Z,2.20
2017-12-05T07:06:46.500Z,2.03
2017-12-05T07:09:14.145Z,1.47
2017-12-05T07:11:42.562Z,2.07
2017-12-05T07:14:10.184Z,1.20
2017-12-05T07:16:38.564Z,1.10
2017-12-05T07:19:06.263Z,1.40
2017-12-05T07:21:33.858Z,1.73
2017-12-05T07:24:01.491Z,1.17
2017-12-05T07:26:29.109Z,1.90
2017-12-05T07:28:57.504Z,1.40
2017-12-05T07:31:25.119Z,1.60
2017-12-05T07:33:52.757Z,1.80
2017-12-05T07:36:20.358Z,1.83
2017-12-05T07:38:48.757Z,1.47
2017-12-05T07:41:16.362Z,1.70
2017-12-05T07:43:44.002Z,2.17
2017-12-05T07:46:11.595Z,1.90
2017-12-05T07:48:39.257Z,1.83
2017-12-05T07:51:06.893Z,2.40
2017-12-05T07:53:34.509Z,1.33
2017-12-05T07:56:02.877Z,2.73
2017-12-05T07:58:31.278Z,2.30
2017-12-05T08:00:58.872Z,2.00
2017-12-05T08:03:26.470Z,1.50
2017-12-05T08:05:54.105Z,3.03
2017-12-05T08:08:21.713Z,1.13
2017-12-05T08:10:50.086Z,1.83
2017-12-05T08:13:18.476Z,1.37
2017-12-05T08:15:46.077Z,2.57
2017-12-05T08:18:13.714Z,2.50
2017-12-05T08:20:41.318Z,2.60
2017-12-05T08:23:08.940Z,2.30
2017-12-05T08:25:36.536Z,2.43
2017-12-05T08:28:04.173Z,2.23
2017-12-05T08:30:31.802Z,2.47
2017-12-05T08:32:59.436Z,2.03
2017-12-05T08:35:27.053Z,2.23
2017-12-05T08:37:54.660Z,2.13
2017-12-05T08:40:22.312Z,3.00
2017-12-05T08:42:49.924Z,2.63
2017-12-05T08:45:17.533Z,2.27
2017-12-05T08:47:45.181Z,2.13
2017-12-05T08:50:12.784Z,2.13
2017-12-05T08:52:41.381Z,2.23
2017-12-05T08:55:09.037Z,2.10
2017-12-05T08:57:36.633Z,2.57
2017-12-05T09:00:04.264Z,2.67
2017-12-05T09:02:31.913Z,1.93
2017-12-05T09:04:59.616Z,2.57
2017-12-05T09:07:27.225Z,3.20
2017-12-05T09:09:55.621Z,2.47
2017-12-05T09:12:23.243Z,3.43
2017-12-05T09:14:51.645Z,3.27
2017-12-05T09:17:19.286Z,2.80
2017-12-05T09:19:47.021Z,3.00
2017-12-05T09:22:14.647Z,5.00
2017-12-05T09:24:42.274Z,1.70
2017-12-05T09:27:09.888Z,3.13
2017-12-05T09:29:37.517Z,3.50
2017-12-05T09:32:05.897Z,3.03
2017-12-05T09:34:34.281Z,3.73
2017-12-05T09:37:02.662Z,2.77
2017-12-05T09:39:31.065Z,3.67
2017-12-05T09:41:58.679Z,2.70
2017-12-05T09:44:26.308Z,3.20
2017-12-05T09:46:53.959Z,2.17
2017-12-05T09:49:21.605Z,3.30
2017-12-05T09:51:49.245Z,2.90
2017-12-05T09:54:17.669Z,3.70
2017-12-05T09:56:45.275Z,3.00
2017-12-05T09:59:14.049Z,3.70
2017-12-05T10:01:41.664Z,3.43
2017-12-05T10:04:09.263Z,2.00
2017-12-05T10:06:36.909Z,2.77
2017-12-05T10:09:04.502Z,4.03
2017-12-05T10:11:32.870Z,3.20
2017-12-05T10:14:00.499Z,3.20
2017-12-05T10:16:28.105Z,2.97
2017-12-05T10:18:56.503Z,3.60
2017-12-05T10:21:24.870Z,2.70
2017-12-05T10:23:53.624Z,2.70
2017-12-05T10:26:21.238Z,2.40
2017-12-05T10:28:48.875Z,4.50
2017-12-05T10:31:17.252Z,2.67
2017-12-05T10:33:45.705Z,3.07
2017-12-05T10:36:13.335Z,2.90
2017-12-05T10:38:40.973Z,3.33
2017-12-05T10:41:08.615Z,3.83
2017-12-05T10:43:37.018Z,4.20
2017-12-05T10:46:04.629Z,2.07
2017-12-05T10:48:32.256Z,3.80
2017-12-05T10:50:59.865Z,2.90
2017-12-05T10:53:29.020Z,3.20
2017-12-05T10:55:56.629Z,3.63
2017-12-05T10:58:25.054Z,3.30
2017-12-05T11:00:52.665Z,2.73
2017-12-05T11:03:20.274Z,4.17
2017-12-05T11:05:47.909Z,4.90
2017-12-05T11:08:16.273Z,3.73
2017-12-05T11:10:44.640Z,3.60
2017-12-05T11:13:12.291Z,4.00
2017-12-05T11:15:39.884Z,3.60
2017-12-05T11:18:07.526Z,2.90
2017-12-05T11:20:35.125Z,3.93
2017-12-05T11:23:02.978Z,3.23
2017-12-05T11:25:31.397Z,3.70
2017-12-05T11:27:59.029Z,3.20
2017-12-05T11:30:27.516Z,3.63
2017-12-05T11:32:55.113Z,2.50
2017-12-05T11:35:22.742Z,2.90
2017-12-05T11:37:50.345Z,3.50
2017-12-05T11:40:17.941Z,2.47
2017-12-05T11:42:46.340Z,3.27
2017-12-05T11:45:13.949Z,4.70
2017-12-05T11:47:41.636Z,2.37
2017-12-05T11:50:10.008Z,3.40
2017-12-05T11:52:38.405Z,3.20
2017-12-05T11:55:06.018Z,3.40
2017-12-05T11:57:33.641Z,3.13
2017-12-05T12:00:01.233Z,3.03
2017-12-05T12:02:28.866Z,3.73
2017-12-05T12:04:56.465Z,2.90
2017-12-05T12:07:24.105Z,2.10
2017-12-05T12:09:51.702Z,3.57
2017-12-05T12:12:19.324Z,3.50
2017-12-05T12:14:46.915Z,2.87
2017-12-05T12:17:14.582Z,3.87
2017-12-05T12:19:42.193Z,3.87
2017-12-05T12:22:09.788Z,4.37
2017-12-05T12:24:37.375Z,3.27
2017-12-05T12:27:04.993Z,3.17
2017-12-05T12:29:32.593Z,2.30
2017-12-05T12:32:00.973Z,4.00
2017-12-05T12:34:29.343Z,3.60
2017-12-05T12:36:57.737Z,4.17
2017-12-05T12:39:26.105Z,3.97
2017-12-05T12:41:53.753Z,3.93
2017-12-05T12:44:21.353Z,5.23
2017-12-05T12:46:48.999Z,4.03
2017-12-05T12:49:17.380Z,4.43
2017-12-05T12:51:45.762Z,3.77
2017-12-05T12:54:14.114Z,3.10
2017-12-05T12:56:41.744Z,3.70
2017-12-05T12:59:09.341Z,3.70
2017-12-05T13:01:36.961Z,3.93
2017-12-05T13:04:04.569Z,1.87
2017-12-05T13:06:32.185Z,2.60
2017-12-05T13:08:59.779Z,2.93
2017-12-05T13:11:27.396Z,4.17
2017-12-05T13:13:54.987Z,4.90
2017-12-05T13:16:22.611Z,3.77
2017-12-05T13:18:50.300Z,3.70
2017-12-05T13:21:17.925Z,3.27
2017-12-05T13:23:45.521Z,5.07
2017-12-05T13:26:13.158Z,3.40
2017-12-05T13:28:40.760Z,3.50
2017-12-05T13:31:08.384Z,3.90
2017-12-05T13:33:36.013Z,3.50
2017-12-05T13:36:04.380Z,3.23
2017-12-05T13:38:32.739Z,3.30
2017-12-05T13:41:00.374Z,2.83
2017-12-05T13:43:27.960Z,2.67
2017-12-05T13:45:55.580Z,3.20
2017-12-05T13:48:23.173Z,2.87
2017-12-05T13:50:50.802Z,2.30
2017-12-05T13:53:18.416Z,2.73
2017-12-05T13:55:46.038Z,3.03
2017-12-05T13:58:13.671Z,3.23
2017-12-05T14:00:41.320Z,3.20
2017-12-05T14:03:09.693Z,3.67
2017-12-05T14:05:38.085Z,2.70
2017-12-05T14:08:05.701Z,3.90
2017-12-05T14:10:33.346Z,3.10
2017-12-05T14:13:00.978Z,4.60
2017-12-05T14:15:28.641Z,3.47
2017-12-05T14:17:56.272Z,3.33
2017-12-05T14:20:24.689Z,3.27
2017-12-05T14:22:52.273Z,3.17
2017-12-05T14:25:19.917Z,3.53
2017-12-05T14:27:47.523Z,2.40
2017-12-05T14:30:15.145Z,2.27
2017-12-05T14:32:42.782Z,3.23
2017-12-05T14:35:10.417Z,3.50
2017-12-05T14:37:38.006Z,4.03
2017-12-05T14:40:05.635Z,3.20
2017-12-05T14:42:33.998Z,3.53
2017-12-05T14:45:01.617Z,3.40
2017-12-05T14:47:29.389Z,4.30
2017-12-05T14:49:57.186Z,3.80
2017-12-05T14:52:25.001Z,3.87
2017-12-05T14:54:52.637Z,4.23
2017-12-05T14:57:21.008Z,3.77
2017-12-05T14:59:49.421Z,5.10
2017-12-05T15:02:17.052Z,3.67
2017-12-05T15:04:45.444Z,3.23
2017-12-05T15:07:13.795Z,3.70
2017-12-05T15:09:41.408Z,3.60
2017-12-05T15:12:09.012Z,4.00
2017-12-05T15:14:36.641Z,3.40
2017-12-05T15:17:04.231Z,3.43
2017-12-05T15:19:33.366Z,3.57
2017-12-05T15:22:00.993Z,3.60
2017-12-05T15:24:28.831Z,3.50
2017-12-05T15:26:56.608Z,2.20
2017-12-05T15:29:24.255Z,2.70
2017-12-05T15:31:51.866Z,2.90
2017-12-05T15:34:20.270Z,4.00
2017-12-05T15:36:47.950Z,3.37
2017-12-05T15:39:15.547Z,2.70
2017-12-05T15:41:43.172Z,3.10
2017-12-05T15:44:10.790Z,3.23
2017-12-05T15:46:39.159Z,2.70
2017-12-05T15:49:06.780Z,3.27
2017-12-05T15:51:34.390Z,5.40
2017-12-05T15:54:02.800Z,3.80
2017-12-05T15:56:30.411Z,4.60
2017-12-05T15:58:58.041Z,3.80
2017-12-05T16:01:25.642Z,5.70
2017-12-05T16:03:53.284Z,4.43
2017-12-05T16:06:20.884Z,2.50
2017-12-05T16:08:49.354Z,4.33
2017-12-05T16:11:16.959Z,3.50
2017-12-05T16:13:44.554Z,4.20
2017-12-05T16:16:12.197Z,4.37
2017-12-05T16:18:39.808Z,3.37
2017-12-05T16:21:07.417Z,4.10
2017-12-05T16:23:35.103Z,2.20
2017-12-05T16:26:02.705Z,4.10
2017-12-05T16:28:30.292Z,2.70
2017-12-05T16:30:57.924Z,3.33
2017-12-05T16:33:25.538Z,3.73
2017-12-05T16:35:53.165Z,4.23
2017-12-05T16:38:20.800Z,2.53
2017-12-05T16:40:48.442Z,3.20
2017-12-05T16:43:16.812Z,2.97
2017-12-05T16:45:44.450Z,2.80
2017-12-05T16:48:12.046Z,4.60
2017-12-05T16:50:40.445Z,3.50
2017-12-05T16:53:08.060Z,4.60
2017-12-05T16:55:35.685Z,4.47
2017-12-05T16:58:03.305Z,3.67
2017-12-05T17:00:31.709Z,3.90
2017-12-05T17:02:59.340Z,5.03
2017-12-05T17:05:27.068Z,5.43
2017-12-05T17:07:54.672Z,2.53
2017-12-05T17:10:23.342Z,5.13
2017-12-05T17:12:51.005Z,5.07
2017-12-05T17:15:18.641Z,4.83
2017-12-05T17:17:46.240Z,3.80
2017-12-05T17:20:14.663Z,5.37
2017-12-05T17:22:42.255Z,5.13
2017-12-05T17:25:09.916Z,4.30
2017-12-05T17:27:37.549Z,5.30
2017-12-05T17:30:05.140Z,2.10
2017-12-05T17:32:32.769Z,5.00
2017-12-05T17:35:00.373Z,5.00
2017-12-05T17:37:27.981Z,5.70
2017-12-05T17:39:55.804Z,4.83
2017-12-05T17:42:23.563Z,5.40
2017-12-05T17:44:51.405Z,5.47
2017-12-05T17:47:19.171Z,4.00
2017-12-05T17:49:46.791Z,5.90
2017-12-05T17:52:14.606Z,4.10
2017-12-05T17:54:42.368Z,4.00
2017-12-05T17:57:11.671Z,5.80
2017-12-05T17:59:39.529Z,4.27
2017-12-05T18:02:07.375Z,5.90
2017-12-05T18:04:35.402Z,5.37
2017-12-05T18:07:04.067Z,6.10
2017-12-05T18:09:31.960Z,4.20
2017-12-05T18:12:00.579Z,4.80
2017-12-05T18:14:28.490Z,5.40
2017-12-05T18:16:56.348Z,6.27
2017-12-05T18:19:24.234Z,5.20
2017-12-05T18:21:52.105Z,5.50
2017-12-05T18:24:20.717Z,3.67
2017-12-05T18:26:48.522Z,3.53
2017-12-05T18:29:16.358Z,4.50
2017-12-05T18:31:44.212Z,5.47
2017-12-05T18:34:11.986Z,3.60
2017-12-05T18:36:39.820Z,3.50
2017-12-05T18:39:08.371Z,5.13
2017-12-05T18:41:36.177Z,4.03
2017-12-05T18:44:04.785Z,4.43
2017-12-05T18:46:32.589Z,5.20
2017-12-05T18:49:01.207Z,3.77
2017-12-05T18:51:29.774Z,3.90
2017-12-05T18:56:53.621Z,5.83
2017-12-05T18:59:21.258Z,5.00
2017-12-05T19:01:48.893Z,5.10
2017-12-05T19:04:16.516Z,5.13
2017-12-05T19:06:44.148Z,3.97
2017-12-05T19:09:11.761Z,4.67
2017-12-05T19:11:39.425Z,4.63
2017-12-05T19:14:07.045Z,6.20
2017-12-05T19:16:34.688Z,5.60
2017-12-05T19:19:02.303Z,5.47
2017-12-05T19:21:29.953Z,2.73
2017-12-05T19:23:57.930Z,6.27
2017-12-05T19:26:25.805Z,5.13
2017-12-05T19:28:53.863Z,6.77
2017-12-05T19:31:21.838Z,5.97
2017-12-05T19:33:49.796Z,3.83
2017-12-05T19:36:17.771Z,5.20
2017-12-05T19:38:45.740Z,3.43
2017-12-05T19:41:13.707Z,4.53
2017-12-05T19:43:41.672Z,4.50
2017-12-05T19:46:09.650Z,7.87
2017-12-05T19:48:37.523Z,6.23
2017-12-05T19:51:05.482Z,4.10
2017-12-05T19:53:33.451Z,7.20
2017-12-05T19:56:01.422Z,4.90
2017-12-05T19:58:29.386Z,5.20
2017-12-05T20:00:57.365Z,6.30
2017-12-05T20:03:25.193Z,5.13
2017-12-05T20:05:53.099Z,5.80
2017-12-05T20:08:21.058Z,9.90
2017-12-05T20:10:49.034Z,6.30
2017-12-05T20:13:17.002Z,5.33
2017-12-05T20:15:45.479Z,4.07
2017-12-05T20:18:13.452Z,6.20
2017-12-05T20:20:41.421Z,5.23
2017-12-05T20:23:09.076Z,4.23
2017-12-05T20:25:37.055Z,4.53
2017-12-05T20:28:05.025Z,5.30
2017-12-05T20:30:32.989Z,3.43
2017-12-05T20:33:00.951Z,4.63
2017-12-05T20:35:28.915Z,4.87
2017-12-05T20:37:56.784Z,4.53
2017-12-05T20:40:24.756Z,4.03
2017-12-05T20:42:52.582Z,4.20
2017-12-05T20:45:20.400Z,4.40
2017-12-05T20:47:48.207Z,5.20
2017-12-05T20:50:15.880Z,2.90
2017-12-05T20:52:43.669Z,3.23
2017-12-05T20:55:11.425Z,2.20
2017-12-05T20:57:39.043Z,3.70
2017-12-05T21:00:07.413Z,3.50
2017-12-05T21:02:36.136Z,2.73
2017-12-05T21:05:03.736Z,2.23
2017-12-05T21:07:31.369Z,3.10
2017-12-05T21:09:58.958Z,3.47
2017-12-05T21:12:28.109Z,5.40
2017-12-05T21:14:55.703Z,4.77
2017-12-05T21:17:23.361Z,2.70
2017-12-05T21:19:50.969Z,3.67
2017-12-05T21:22:19.357Z,4.60
2017-12-05T21:24:47.724Z,2.70
2017-12-05T21:27:16.136Z,3.00
2017-12-05T21:29:43.742Z,4.13
2017-12-05T21:32:11.337Z,5.57
2017-12-05T21:34:39.720Z,4.53
2017-12-05T21:37:07.317Z,4.03
2017-12-05T21:39:34.937Z,3.50
2017-12-05T21:42:02.550Z,6.30
2017-12-05T21:44:30.210Z,3.43
2017-12-05T21:46:57.805Z,3.27
2017-12-05T21:49:25.425Z,4.20
2017-12-05T21:51:53.097Z,4.97
2017-12-05T21:54:20.724Z,4.40
2017-12-05T21:56:48.321Z,5.60
2017-12-05T21:59:15.948Z,3.33
2017-12-05T22:01:43.541Z,3.00
2017-12-05T22:04:11.167Z,2.97
2017-12-05T22:06:38.756Z,4.10
2017-12-05T22:09:06.378Z,3.67
2017-12-05T22:11:33.978Z,5.07
2017-12-05T22:14:01.643Z,3.03
2017-12-05T22:16:29.325Z,5.67
2017-12-05T22:18:56.944Z,4.20
2017-12-05T22:21:24.568Z,3.90
2017-12-05T22:23:52.953Z,5.37
2017-12-05T22:26:21.308Z,6.13
2017-12-05T22:28:48.941Z,5.47
2017-12-05T22:31:16.537Z,7.00
2017-12-05T22:33:44.142Z,5.50
2017-12-05T22:36:11.770Z,6.30
2017-12-05T22:38:40.131Z,6.47
2017-12-05T22:41:07.758Z,7.40
2017-12-05T22:43:35.381Z,5.87
2017-12-05T22:46:03.005Z,5.10
2017-12-05T22:48:30.637Z,4.10
2017-12-05T22:50:58.236Z,5.47
2017-12-05T22:53:25.885Z,5.47
2017-12-05T22:55:53.493Z,7.20
2017-12-05T22:58:21.112Z,6.03
2017-12-05T23:00:48.737Z,6.60
2017-12-05T23:03:16.343Z,6.40
2017-12-05T23:05:44.235Z,6.13
2017-12-05T23:08:11.844Z,7.50
2017-12-05T23:10:39.442Z,7.00
2017-12-05T23:13:07.835Z,7.60
2017-12-05T23:15:36.197Z,5.57
2017-12-05T23:18:04.589Z,7.03
2017-12-05T23:20:32.948Z,5.97
2017-12-05T23:23:00.548Z,8.07
2017-12-05T23:25:28.204Z,7.60
2017-12-05T23:27:55.801Z,9.40
2017-12-05T23:30:23.436Z,4.60
2017-12-05T23:32:51.039Z,8.30
2017-12-05T23:35:18.641Z,6.10
2017-12-05T23:37:46.261Z,6.43
2017-12-05T23:40:13.854Z,4.50
2017-12-05T23:42:42.250Z,8.03
2017-12-05T23:45:09.850Z,9.03
2017-12-05T23:47:37.445Z,6.00
2017-12-05T23:50:05.845Z,6.40
2017-12-05T23:52:33.455Z,7.30
2017-12-05T23:55:01.085Z,7.90
2017-12-05T23:57:28.680Z,4.60
2017-12-05T23:59:57.036Z,6.93
